Time;durP1;ratioP1;P1;durP2;ratioP2;P2;SDS_P1;SDS_P2;PMS_P1;PMS_P2;Temp;Humidity;BMP_temperature;BMP_pressure;BME280_temperature;BME280_humidity;BME280_pressure;Samples;Min_cycle;Max_cycle;Signal;HPM_P1;HPM_P2
2022/09/15 00:02:07;;;;;;;9.93;6.45;;;13.80;99.90;;;;;;6075546;23;20014;-80
2022/09/15 00:07:30;;;;;;;7.72;5.60;;;14.00;99.90;;;;;;6098680;23;20010;-81
2022/09/15 00:09:56;;;;;;;9.90;6.93;;;14.10;99.90;;;;;;6100616;23;20006;-80
2022/09/15 00:12:32;;;;;;;10.30;5.95;;;14.20;99.90;;;;;;6099718;23;20473;-80
2022/09/15 00:15:25;;;;;;;6.85;5.85;;;14.30;99.90;;;;;;6077340;23;20010;-81
2022/09/15 00:18:38;;;;;;;7.40;5.70;;;14.40;99.90;;;;;;6075616;23;20009;-79
2022/09/15 00:21:28;;;;;;;6.78;4.75;;;14.40;99.90;;;;;;6099788;23;20006;-80
2022/09/15 00:26:58;;;;;;;14.63;10.70;;;14.60;99.90;;;;;;6062537;23;20007;-81
2022/09/15 00:29:27;;;;;;;10.77;7.57;;;14.60;99.90;;;;;;6100017;23;20315;-81
2022/09/15 00:32:11;;;;;;;10.80;7.72;;;14.70;99.90;;;;;;6099776;23;20006;-81
2022/09/15 00:35:07;;;;;;;11.38;7.38;;;14.70;99.90;;;;;;6070112;23;20006;-80
2022/09/15 00:37:42;;;;;;;9.38;7.38;;;14.80;99.90;;;;;;6052714;23;20071;-81
2022/09/15 00:40:23;;;;;;;8.93;7.00;;;14.80;99.90;;;;;;6076598;23;20013;-79
2022/09/15 00:42:55;;;;;;;12.60;8.38;;;14.90;99.90;;;;;;6077902;23;20009;-80
2022/09/15 00:45:27;;;;;;;9.43;6.63;;;14.90;99.90;;;;;;6077788;23;20017;-80
2022/09/15 00:47:57;;;;;;;10.13;8.32;;;15.00;99.90;;;;;;6077082;23;20006;-79
2022/09/15 00:50:39;;;;;;;10.48;7.97;;;15.00;99.90;;;;;;6101448;23;20017;-81
2022/09/15 00:53:23;;;;;;;;;;;;;;;;;;;;;
2022/09/15 00:55:59;;;;;;;8.53;6.03;;;15.00;99.90;;;;;;6099039;23;20342;-80
2022/09/15 00:59:09;;;;;;;7.28;6.20;;;15.10;99.90;;;;;;6103785;23;20025;-79
2022/09/15 01:01:52;;;;;;;6.45;3.60;;;15.10;99.90;;;;;;6072392;23;20017;-79
2022/09/15 01:04:21;;;;;;;6.45;4.50;;;15.10;99.90;;;;;;6077314;23;20016;-80
2022/09/15 01:07:01;;;;;;;7.68;4.57;;;15.10;99.90;;;;;;6076236;23;20018;-80
2022/09/15 01:12:50;;;;;;;7.20;5.13;;;15.10;99.90;;;;;;6100576;23;20454;-80
2022/09/15 01:15:28;;;;;;;6.78;4.30;;;15.00;99.90;;;;;;6101496;23;20010;-80
2022/09/15 01:18:37;;;;;;;6.28;3.47;;;15.00;99.90;;;;;;6125128;23;20002;-80
2022/09/15 01:21:18;;;;;;;5.85;4.25;;;15.00;99.90;;;;;;6077292;23;20013;-80
2022/09/15 01:24:41;;;;;;;4.80;3.20;;;14.90;99.90;;;;;;6101426;23;20006;-81
2022/09/15 01:27:45;;;;;;;5.70;3.05;;;14.90;99.90;;;;;;6072937;23;20006;-78
2022/09/15 01:30:38;;;;;;;8.15;3.53;;;14.80;99.90;;;;;;6080520;23;20006;-81
2022/09/15 01:33:24;;;;;;;4.13;2.58;;;14.70;99.90;;;;;;6144069;23;20012;-81
2022/09/15 01:36:21;;;;;;;5.63;2.17;;;14.70;99.90;;;;;;6093225;23;20006;-80
2022/09/15 01:39:29;;;;;;;4.75;3.03;;;14.60;99.90;;;;;;6080704;23;20024;-79
2022/09/15 01:42:02;;;;;;;4.03;3.03;;;14.60;99.90;;;;;;6100967;23;20312;-80
2022/09/15 01:44:47;;;;;;;3.40;2.50;;;14.60;99.90;;;;;;6125276;23;20312;-80
2022/09/15 01:47:40;;;;;;;6.95;2.85;;;14.60;99.90;;;;;;6121245;23;20022;-81
2022/09/15 01:50:21;;;;;;;5.45;2.35;;;14.60;99.90;;;;;;6101681;23;20006;-81
2022/09/15 01:53:21;;;;;;;6.00;2.72;;;14.60;99.90;;;;;;6101717;23;20014;-81
2022/09/15 01:56:16;;;;;;;4.40;3.10;;;14.70;99.90;;;;;;6126496;23;20002;-81
2022/09/15 01:59:06;;;;;;;5.50;3.25;;;14.70;99.90;;;;;;6080317;23;20335;-80
2022/09/15 02:02:47;;;;;;;3.67;2.95;;;14.70;99.90;;;;;;6140832;23;20024;-80
2022/09/15 02:05:56;;;;;;;5.57;2.85;;;14.70;99.90;;;;;;6098034;23;20006;-80
2022/09/15 02:09:21;;;;;;;4.18;2.53;;;14.70;99.90;;;;;;6103341;23;20006;-81
2022/09/15 02:12:34;;;;;;;4.57;3.15;;;14.80;99.90;;;;;;6078122;23;20014;-81
2022/09/15 02:15:13;;;;;;;6.60;3.50;;;14.80;99.90;;;;;;6064641;23;20006;-80
2022/09/15 02:18:28;;;;;;;5.93;2.70;;;14.70;99.90;;;;;;6084526;23;20006;-80
2022/09/15 02:21:11;;;;;;;6.20;3.53;;;14.60;99.90;;;;;;6055994;23;20013;-80
2022/09/15 02:24:17;;;;;;;3.55;1.90;;;14.50;99.90;;;;;;6081345;23;20505;-81
2022/09/15 02:27:37;;;;;;;5.05;3.60;;;14.50;99.90;;;;;;6082149;23;20010;-80
2022/09/15 02:33:53;;;;;;;6.82;3.90;;;14.30;99.90;;;;;;6081458;23;20020;-81
2022/09/15 02:40:08;;;;;;;10.45;4.65;;;14.20;99.90;;;;;;6131621;23;20006;-81
2022/09/15 02:42:57;;;;;;;8.05;5.50;;;14.20;99.90;;;;;;6123430;23;20014;-81
2022/09/15 02:45:38;;;;;;;6.82;4.15;;;14.20;99.90;;;;;;6082302;23;20014;-82
2022/09/15 02:48:29;;;;;;;;;;;;;;;;;;;;;
2022/09/15 02:51:13;;;;;;;7.78;6.05;;;14.10;99.90;;;;;;6082591;23;20024;-80
2022/09/15 02:57:13;;;;;;;8.05;4.07;;;14.00;99.90;;;;;;6074598;23;20017;-80
2022/09/15 03:03:35;;;;;;;5.60;3.83;;;14.00;99.90;;;;;;6123064;23;20475;-80
2022/09/15 03:06:20;;;;;;;4.47;2.67;;;14.00;99.90;;;;;;6082588;23;20010;-81
2022/09/15 03:09:29;;;;;;;4.72;3.05;;;14.00;99.90;;;;;;6129459;23;20006;-80
2022/09/15 03:12:13;;;;;;;4.38;3.60;;;14.00;99.90;;;;;;6083462;23;20036;-80
2022/09/15 03:14:49;;;;;;;5.47;3.60;;;14.00;99.90;;;;;;6084184;23;20406;-80
2022/09/15 03:17:43;;;;;;;4.03;3.35;;;13.90;99.90;;;;;;6083955;23;20020;-80
2022/09/15 03:20:29;;;;;;;5.00;3.20;;;14.00;99.90;;;;;;6083534;23;20002;-79
2022/09/15 03:26:19;;;;;;;5.85;3.58;;;14.00;99.90;;;;;;6133087;23;20006;-80
2022/09/15 03:29:13;;;;;;;5.47;3.42;;;14.00;99.90;;;;;;6086722;23;20476;-81
2022/09/15 03:33:01;;;;;;;4.50;3.30;;;14.00;99.90;;;;;;6121741;23;20013;-80
2022/09/15 03:35:40;;;;;;;4.43;2.40;;;14.00;99.90;;;;;;6084254;23;20339;-80
2022/09/15 03:38:12;;;;;;;5.37;2.90;;;13.90;99.90;;;;;;6081219;23;19998;-81
2022/09/15 03:41:02;;;;;;;4.20;2.70;;;14.00;99.90;;;;;;6103563;23;20229;-80
2022/09/15 03:44:08;;;;;;;4.05;2.10;;;14.00;99.90;;;;;;6106697;23;20013;-80
2022/09/15 03:46:35;;;;;;;4.65;3.10;;;14.10;99.90;;;;;;6058338;23;20070;-80
2022/09/15 03:49:11;;;;;;;5.45;2.30;;;14.20;99.90;;;;;;6084910;23;20126;-79
2022/09/15 03:51:40;;;;;;;3.97;2.47;;;14.20;99.90;;;;;;6090245;23;20019;-83
2022/09/15 03:54:27;;;;;;;5.85;3.50;;;14.30;99.90;;;;;;6079372;23;20018;-82
2022/09/15 03:56:53;;;;;;;5.70;2.75;;;14.30;99.90;;;;;;6076784;23;20011;-82
2022/09/15 03:59:30;;;;;;;2.88;1.90;;;14.30;99.90;;;;;;6055555;23;20007;-82
2022/09/15 04:01:57;;;;;;;3.95;3.03;;;14.40;99.90;;;;;;6084047;23;20003;-82
2022/09/15 04:04:26;;;;;;;7.90;3.38;;;14.40;99.90;;;;;;6093024;23;20066;-83
2022/09/15 04:06:55;;;;;;;4.65;2.55;;;14.40;99.90;;;;;;6118247;23;20063;-83
2022/09/15 04:09:26;;;;;;;3.22;2.15;;;14.40;99.90;;;;;;6093221;23;20141;-83
2022/09/15 04:12:06;;;;;;;4.55;2.88;;;14.40;99.90;;;;;;6083720;23;20021;-81
2022/09/15 04:14:39;;;;;;;6.13;2.95;;;14.50;99.90;;;;;;6081263;23;20009;-83
2022/09/15 04:17:09;;;;;;;2.78;1.95;;;14.50;99.90;;;;;;6092847;23;20005;-83
2022/09/15 04:19:36;;;;;;;4.10;2.85;;;14.50;99.90;;;;;;6088107;23;20011;-82
2022/09/15 04:22:03;;;;;;;4.95;2.40;;;14.50;99.90;;;;;;6104100;23;20006;-83
2022/09/15 04:24:35;;;;;;;4.43;2.60;;;14.60;99.90;;;;;;6058256;23;20017;-82
2022/09/15 04:27:09;;;;;;;5.90;3.35;;;14.50;99.90;;;;;;6079090;23;20009;-80
2022/09/15 04:29:38;;;;;;;8.13;2.85;;;14.60;99.90;;;;;;6101034;23;20003;-80
2022/09/15 04:32:04;;;;;;;5.22;2.58;;;14.60;99.90;;;;;;6077411;23;20007;-80
2022/09/15 04:34:31;;;;;;;4.20;2.45;;;14.60;99.90;;;;;;6101391;23;20006;-80
2022/09/15 04:36:57;;;;;;;4.32;2.05;;;14.60;99.90;;;;;;6052797;23;20011;-79
2022/09/15 04:39:24;;;;;;;4.20;2.28;;;14.60;99.90;;;;;;6075893;23;20006;-79
2022/09/15 04:41:50;;;;;;;4.90;2.22;;;14.60;99.90;;;;;;6074838;23;20010;-80
2022/09/15 04:44:17;;;;;;;4.00;1.83;;;14.60;99.90;;;;;;6098423;23;20011;-80
2022/09/15 04:46:43;;;;;;;4.07;2.33;;;14.70;99.90;;;;;;6075008;23;20461;-80
2022/09/15 04:49:09;;;;;;;3.95;2.20;;;14.60;99.90;;;;;;6073957;23;20011;-79
2022/09/15 04:51:36;;;;;;;3.95;2.20;;;14.70;99.90;;;;;;6098571;23;20010;-79
2022/09/15 04:54:03;;;;;;;4.85;2.15;;;14.70;99.90;;;;;;6074385;23;20378;-79
2022/09/15 04:56:29;;;;;;;6.57;2.28;;;14.70;99.90;;;;;;6077757;23;20013;-79
2022/09/15 04:58:57;;;;;;;6.63;2.60;;;14.70;99.90;;;;;;6077498;23;20003;-80
2022/09/15 05:01:28;;;;;;;3.67;2.13;;;14.70;99.90;;;;;;6077282;23;20447;-79
2022/09/15 05:03:55;;;;;;;3.53;1.80;;;14.70;99.90;;;;;;6085731;23;20444;-80
2022/09/15 05:06:24;;;;;;;4.10;1.40;;;14.70;99.90;;;;;;6076223;23;20017;-79
2022/09/15 05:08:53;;;;;;;3.03;0.95;;;14.70;99.90;;;;;;6076314;23;20011;-81
2022/09/15 05:11:23;;;;;;;3.00;1.00;;;14.70;99.90;;;;;;6077157;23;20014;-81
2022/09/15 05:13:50;;;;;;;2.58;1.27;;;14.70;99.90;;;;;;6078170;23;20021;-81
2022/09/15 05:16:32;;;;;;;2.60;0.80;;;14.80;99.90;;;;;;6101790;23;20007;-82
2022/09/15 05:19:03;;;;;;;4.93;0.90;;;14.80;99.90;;;;;;6099014;23;20056;-79
2022/09/15 05:21:30;;;;;;;5.72;1.15;;;14.80;99.90;;;;;;6099472;23;20026;-79
2022/09/15 05:23:56;;;;;;;3.55;0.85;;;14.80;99.90;;;;;;6076992;23;20003;-79
2022/09/15 05:26:25;;;;;;;2.47;0.70;;;14.80;99.90;;;;;;6077262;23;20026;-79
2022/09/15 05:28:52;;;;;;;2.47;0.70;;;14.80;99.90;;;;;;6099322;23;20350;-79
2022/09/15 05:31:30;;;;;;;2.90;0.77;;;14.80;99.90;;;;;;6051723;23;20013;-79
2022/09/15 05:33:59;;;;;;;6.68;1.20;;;14.80;99.90;;;;;;6098201;23;20007;-79
2022/09/15 05:36:26;;;;;;;3.35;1.02;;;14.80;99.90;;;;;;6075306;23;20007;-79
2022/09/15 05:38:55;;;;;;;4.57;0.88;;;14.80;99.90;;;;;;6076688;23;20003;-79
2022/09/15 05:41:24;;;;;;;4.22;0.80;;;14.90;99.90;;;;;;6076508;23;20022;-80
2022/09/15 05:43:52;;;;;;;5.05;0.85;;;14.90;99.90;;;;;;6076769;23;20029;-79
2022/09/15 05:46:19;;;;;;;2.38;0.82;;;14.90;99.90;;;;;;6076711;23;20003;-79
2022/09/15 05:48:45;;;;;;;1.90;0.80;;;14.90;99.90;;;;;;6077010;23;20014;-79
2022/09/15 05:51:13;;;;;;;4.22;1.10;;;14.90;99.90;;;;;;6076512;23;20022;-79
2022/09/15 05:53:40;;;;;;;5.78;1.30;;;14.90;99.90;;;;;;6100322;23;20011;-79
2022/09/15 05:56:10;;;;;;;5.85;1.30;;;14.90;99.90;;;;;;6100779;23;20021;-79
2022/09/15 05:58:42;;;;;;;3.13;1.40;;;15.00;99.90;;;;;;6077295;23;20002;-78
2022/09/15 06:01:12;;;;;;;3.78;0.95;;;15.00;99.90;;;;;;6099535;23;20007;-79
2022/09/15 06:03:39;;;;;;;3.65;1.15;;;15.00;99.90;;;;;;6099764;23;20006;-78
2022/09/15 06:06:06;;;;;;;4.35;1.00;;;15.00;99.90;;;;;;6099892;23;20003;-79
2022/09/15 06:08:36;;;;;;;4.10;1.50;;;15.10;99.90;;;;;;6073988;23;20014;-79
2022/09/15 06:11:09;;;;;;;2.65;1.05;;;15.00;99.90;;;;;;6075424;23;20344;-79
2022/09/15 06:13:35;;;;;;;3.17;1.20;;;15.00;99.90;;;;;;6086647;23;20007;-79
2022/09/15 06:16:10;;;;;;;3.65;1.20;;;15.10;99.90;;;;;;6099459;23;20013;-80
2022/09/15 06:18:38;;;;;;;3.15;1.45;;;15.10;99.90;;;;;;6086201;23;19999;-80
2022/09/15 06:21:12;;;;;;;3.70;1.10;;;15.10;99.90;;;;;;6099299;23;20017;-80
2022/09/15 06:23:39;;;;;;;3.60;1.10;;;15.10;99.90;;;;;;6075107;23;20007;-80
2022/09/15 06:26:14;;;;;;;5.50;1.27;;;15.10;99.90;;;;;;6076384;23;20003;-79
2022/09/15 06:28:48;;;;;;;3.45;1.00;;;15.20;99.90;;;;;;6109100;23;20007;-80
2022/09/15 06:31:15;;;;;;;4.18;0.80;;;15.20;99.90;;;;;;6099601;23;20444;-79
2022/09/15 06:33:43;;;;;;;3.10;0.98;;;15.30;99.90;;;;;;6099900;23;20010;-80
2022/09/15 06:36:14;;;;;;;2.95;1.00;;;15.50;99.90;;;;;;6075913;23;20007;-79
2022/09/15 06:38:41;;;;;;;2.33;0.90;;;15.60;99.90;;;;;;6106338;23;20007;-80
2022/09/15 06:41:08;;;;;;;2.97;0.85;;;15.70;99.90;;;;;;6074489;23;20003;-79
2022/09/15 06:43:35;;;;;;;3.55;0.80;;;15.90;99.90;;;;;;6097672;23;20021;-80
2022/09/15 06:46:02;;;;;;;5.25;0.90;;;16.00;99.90;;;;;;6098035;23;20021;-80
2022/09/15 06:48:31;;;;;;;2.35;0.60;;;16.10;99.90;;;;;;6097695;23;20006;-80
2022/09/15 06:50:59;;;;;;;3.22;0.63;;;16.20;99.90;;;;;;6086552;23;20006;-80
2022/09/15 06:53:28;;;;;;;2.30;0.60;;;16.20;99.90;;;;;;6101699;23;20007;-79
2022/09/15 06:56:00;;;;;;;4.82;0.70;;;16.30;99.90;;;;;;6102111;23;20447;-80
2022/09/15 06:58:26;;;;;;;2.75;0.75;;;16.30;99.90;;;;;;6102177;23;20016;-80
2022/09/15 07:00:52;;;;;;;7.25;0.80;;;16.20;99.90;;;;;;6104638;23;19998;-80
2022/09/15 07:03:19;;;;;;;2.47;0.80;;;16.20;99.90;;;;;;6079645;23;20015;-80
2022/09/15 07:05:46;;;;;;;4.25;1.00;;;16.20;99.90;;;;;;6079492;23;20014;-80
2022/09/15 07:08:13;;;;;;;3.88;1.08;;;16.30;99.90;;;;;;6080129;23;20021;-79
2022/09/15 07:10:43;;;;;;;4.25;0.82;;;16.30;99.90;;;;;;6103539;23;20006;-79
2022/09/15 07:13:10;;;;;;;2.92;0.68;;;16.40;99.90;;;;;;6090174;23;20017;-79
2022/09/15 07:15:37;;;;;;;3.70;0.70;;;16.50;99.90;;;;;;6102907;23;20009;-78
2022/09/15 07:18:04;;;;;;;4.13;0.70;;;16.50;99.90;;;;;;6103054;23;20018;-81
2022/09/15 07:20:30;;;;;;;2.28;0.73;;;16.50;99.90;;;;;;6115407;23;20063;-79
2022/09/15 07:22:56;;;;;;;5.38;0.70;;;16.50;99.90;;;;;;6115564;23;20016;-79
2022/09/15 07:25:23;;;;;;;5.00;0.98;;;16.60;99.90;;;;;;6092519;23;19998;-79
2022/09/15 07:27:49;;;;;;;4.22;0.80;;;16.70;99.90;;;;;;6088273;23;20006;-79
2022/09/15 07:30:17;;;;;;;2.95;0.63;;;16.80;99.90;;;;;;6102043;23;20006;-79
2022/09/15 07:32:46;;;;;;;2.25;0.77;;;16.90;99.90;;;;;;6085855;23;20016;-79
2022/09/15 07:35:12;;;;;;;4.53;0.70;;;17.10;99.90;;;;;;6101266;23;20012;-79
2022/09/15 07:37:39;;;;;;;3.95;0.70;;;17.20;99.90;;;;;;6100070;23;20013;-79
2022/09/15 07:40:06;;;;;;;2.45;0.82;;;17.30;99.90;;;;;;6101565;23;20003;-79
2022/09/15 07:42:32;;;;;;;4.15;0.57;;;17.40;99.90;;;;;;6100410;23;20579;-79
2022/09/15 07:44:58;;;;;;;7.53;0.60;;;17.40;99.90;;;;;;6102475;23;20002;-79
2022/09/15 07:47:25;;;;;;;4.00;0.40;;;17.30;99.90;;;;;;6101060;23;20014;-79
2022/09/15 07:49:51;;;;;;;3.40;0.40;;;17.20;99.90;;;;;;6100876;23;20010;-79
2022/09/15 07:52:23;;;;;;;4.25;1.27;;;17.20;99.90;;;;;;6100100;23;20025;-79
2022/09/15 07:54:49;;;;;;;2.80;0.60;;;17.20;99.90;;;;;;6075165;23;20033;-79
2022/09/15 07:57:16;;;;;;;3.08;0.40;;;17.40;99.90;;;;;;6101754;23;19999;-79
2022/09/15 07:59:42;;;;;;;2.30;0.40;;;17.70;99.90;;;;;;6101697;23;20003;-79
2022/09/15 08:02:26;;;;;;;1.73;0.50;;;18.00;99.90;;;;;;6102038;23;20002;-79
2022/09/15 08:04:52;;;;;;;2.60;0.60;;;18.30;99.90;;;;;;6110655;23;20003;-79
2022/09/15 08:07:19;;;;;;;4.72;0.50;;;18.30;99.90;;;;;;6076516;23;20059;-79
2022/09/15 08:09:45;;;;;;;6.40;0.70;;;18.30;99.90;;;;;;6077269;23;20021;-79
2022/09/15 08:12:15;;;;;;;4.45;0.73;;;18.20;99.90;;;;;;6054296;23;20021;-80
2022/09/15 08:14:41;;;;;;;1.98;0.50;;;18.10;99.90;;;;;;6101264;23;20011;-78
2022/09/15 08:17:10;;;;;;;5.88;0.70;;;17.90;99.90;;;;;;6113025;23;20002;-78
2022/09/15 08:19:36;;;;;;;6.07;0.80;;;17.90;99.90;;;;;;6101923;23;20003;-78
2022/09/15 08:22:08;;;;;;;3.22;0.90;;;17.80;99.90;;;;;;6077945;23;20006;-78
2022/09/15 08:24:36;;;;;;;5.45;1.60;;;17.80;99.90;;;;;;6101198;23;20359;-77
2022/09/15 08:27:02;;;;;;;3.38;0.80;;;17.70;99.90;;;;;;6101779;23;20021;-77
2022/09/15 08:29:32;;;;;;;5.35;0.85;;;17.70;99.90;;;;;;6078224;23;20003;-78
2022/09/15 08:32:01;;;;;;;;;;;17.70;99.90;;;;;;6104050;23;20470;-79
2022/09/15 08:34:29;;;;;;;4.32;0.98;;;17.70;99.90;;;;;;6114154;23;20330;-80
2022/09/15 08:36:58;;;;;;;9.88;0.80;;;17.80;99.90;;;;;;6103017;23;19998;-77
2022/09/15 08:39:27;;;;;;;6.68;1.92;;;17.80;99.90;;;;;;6109398;23;20013;-78
2022/09/15 08:41:54;;;;;;;3.17;0.90;;;17.90;99.90;;;;;;6099689;23;20003;-78
2022/09/15 08:44:50;;;;;;;6.28;1.00;;;18.10;99.90;;;;;;6099914;23;20010;-78
2022/09/15 08:47:19;;;;;;;1.75;0.40;;;18.20;99.90;;;;;;6075116;23;20346;-78
2022/09/15 08:49:54;;;;;;;1.95;0.50;;;18.30;99.90;;;;;;6102369;23;20007;-78
2022/09/15 08:52:54;;;;;;;1.40;0.50;;;18.40;99.90;;;;;;6054592;23;20018;-78
2022/09/15 08:55:36;;;;;;;6.03;1.00;;;18.50;99.90;;;;;;6100988;23;20017;-78
2022/09/15 08:58:04;;;;;;;7.30;0.70;;;18.70;99.90;;;;;;6110615;23;20006;-78
2022/09/15 09:00:32;;;;;;;3.80;0.60;;;18.70;99.90;;;;;;6105199;23;20344;-79
2022/09/15 09:03:20;;;;;;;2.40;0.40;;;18.80;99.90;;;;;;6103699;23;20339;-77
2022/09/15 09:05:57;;;;;;;4.35;0.85;;;18.90;99.90;;;;;;6103342;23;20006;-78
2022/09/15 09:08:42;;;;;;;2.58;0.80;;;19.00;99.90;;;;;;6078192;23;20013;-78
2022/09/15 09:11:38;;;;;;;2.45;0.63;;;19.10;99.90;;;;;;6102682;23;20007;-78
2022/09/15 09:14:35;;;;;;;3.55;0.70;;;19.20;99.90;;;;;;6077592;23;20010;-78
2022/09/15 09:17:45;;;;;;;4.47;0.82;;;19.40;99.90;;;;;;6101789;23;20336;-78
2022/09/15 09:20:21;;;;;;;5.68;0.50;;;19.50;99.90;;;;;;6105969;23;20009;-78
2022/09/15 09:22:51;;;;;;;3.55;0.40;;;19.60;99.90;;;;;;6099424;23;20462;-78
2022/09/15 09:25:21;;;;;;;3.72;0.40;;;19.60;99.90;;;;;;6102150;23;20010;-79
2022/09/15 09:27:49;;;;;;;2.00;0.30;;;19.60;99.90;;;;;;6075157;23;20007;-78
2022/09/15 09:30:19;;;;;;;2.25;0.45;;;19.80;99.90;;;;;;6075717;23;20013;-78
2022/09/15 09:33:24;;;;;;;2.55;0.30;;;19.90;99.90;;;;;;6101172;23;20006;-79
2022/09/15 09:36:01;;;;;;;3.67;0.40;;;19.90;99.90;;;;;;6080741;23;20029;-82
2022/09/15 09:38:40;;;;;;;3.80;0.40;;;20.00;99.90;;;;;;6082531;23;20007;-81
2022/09/15 09:41:42;;;;;;;2.10;0.50;;;20.00;99.90;;;;;;6105545;23;20366;-80
2022/09/15 09:44:18;;;;;;;3.03;0.55;;;20.10;99.90;;;;;;6064386;23;20779;-81
2022/09/15 09:47:05;;;;;;;2.38;0.45;;;20.10;99.90;;;;;;6052746;23;20012;-81
2022/09/15 09:49:59;;;;;;;2.00;0.40;;;20.10;99.90;;;;;;6053974;23;20010;-80
2022/09/15 10:13:02;;;;;;;2.30;0.40;;;19.90;99.40;;;;;;6127736;23;20366;-82
2022/09/15 10:15:34;;;;;;;1.92;0.47;;;19.90;99.40;;;;;;6136767;23;20071;-80
2022/09/15 10:18:24;;;;;;;3.33;0.65;;;19.90;98.70;;;;;;6136246;23;20010;-81
2022/09/15 10:21:00;;;;;;;4.50;0.30;;;19.80;98.60;;;;;;6089522;23;20020;-81
2022/09/15 10:23:38;;;;;;;3.58;0.30;;;19.60;98.70;;;;;;6113652;23;20016;-81
2022/09/15 10:26:55;;;;;;;1.65;0.30;;;19.40;99.10;;;;;;6106976;23;20014;-81
2022/09/15 10:29:40;;;;;;;1.92;0.30;;;19.30;99.60;;;;;;6084530;23;20029;-82
2022/09/15 10:32:34;;;;;;;2.05;0.22;;;19.20;99.90;;;;;;6054494;23;20014;-82
2022/09/15 10:35:21;;;;;;;2.20;0.30;;;19.10;99.90;;;;;;6101421;23;20468;-80
2022/09/15 10:38:20;;;;;;;4.70;1.83;;;19.20;99.90;;;;;;6147799;23;20330;-83
2022/09/15 10:41:12;;;;;;;4.50;0.70;;;19.10;99.90;;;;;;6134180;23;20006;-80
2022/09/15 10:44:09;;;;;;;4.50;0.93;;;19.00;99.90;;;;;;6125111;23;20010;-80
2022/09/15 10:47:50;;;;;;;;;;;;;;;;;;;;;
2022/09/15 10:51:02;;;;;;;2.58;0.30;;;18.10;99.90;;;;;;6104728;23;20021;-80
2022/09/15 10:54:10;;;;;;;5.30;0.30;;;18.00;99.90;;;;;;6159601;23;20006;-81
2022/09/15 10:57:17;;;;;;;1.90;0.40;;;18.00;99.90;;;;;;6127804;23;20002;-80
2022/09/15 11:03:26;;;;;;;2.42;0.30;;;18.50;99.90;;;;;;6125516;23;20013;-80
2022/09/15 11:06:28;;;;;;;3.20;0.32;;;18.80;99.90;;;;;;6126225;23;20009;-81
2022/09/15 11:09:24;;;;;;;2.10;0.25;;;19.10;99.90;;;;;;6147570;23;20434;-82
2022/09/15 11:12:35;;;;;;;2.13;0.30;;;19.30;99.90;;;;;;6126255;23;20009;-80
2022/09/15 11:16:02;;;;;;;2.88;0.40;;;19.60;99.90;;;;;;6138264;23;20006;-80
2022/09/15 11:18:57;;;;;;;4.35;0.65;;;19.90;99.90;;;;;;6127564;23;20489;-80
2022/09/15 11:21:45;;;;;;;3.08;0.50;;;20.10;99.90;;;;;;6127852;23;20532;-81
2022/09/15 11:29:58;;;;;;;2.75;0.40;;;20.10;99.20;;;;;;6088461;23;20026;-80
2022/09/15 11:38:25;;;;;;;3.58;0.38;;;20.80;99.10;;;;;;6133536;23;20017;-82
2022/09/15 11:47:01;;;;;;;4.00;0.30;;;21.10;98.20;;;;;;6098543;23;20014;-80
2022/09/15 11:50:41;;;;;;;4.45;0.50;;;21.40;97.60;;;;;;6131882;23;20010;-81
2022/09/15 11:54:10;;;;;;;2.45;0.47;;;21.60;96.90;;;;;;6080344;23;20010;-82
2022/09/15 12:09:47;;;;;;;1.58;0.30;;;22.20;93.40;;;;;;6079802;23;20022;-81
2022/09/15 12:12:43;;;;;;;6.53;0.50;;;22.30;93.40;;;;;;6103887;23;20442;-81
2022/09/15 12:16:43;;;;;;;2.85;0.40;;;23.00;93.40;;;;;;6124366;23;20340;-80
2022/09/15 12:19:58;;;;;;;3.65;0.50;;;24.40;91.90;;;;;;6129099;23;20063;-79
2022/09/15 12:31:36;;;;;;;4.72;0.50;;;26.50;84.50;;;;;;6121062;23;20072;-79
2022/09/15 12:35:01;;;;;;;4.88;0.43;;;25.50;81.40;;;;;;6131645;23;20333;-80
2022/09/15 12:42:40;;;;;;;;;;;;;;;;;;;;;
2022/09/15 12:58:35;;;;;;;;;;;;;;;;;;;;;
2022/09/15 13:01:51;;;;;;;5.80;0.50;;;20.80;90.40;;;;;;5923677;23;20014;-78
2022/09/15 13:04:39;;;;;;;3.38;0.50;;;21.30;90.40;;;;;;6102465;23;20018;-78
2022/09/15 13:07:15;;;;;;;9.35;0.95;;;22.70;89.80;;;;;;6102620;23;20028;-79
2022/09/15 13:09:45;;;;;;;2.80;0.40;;;24.60;86.10;;;;;;6103370;23;20009;-79
2022/09/15 13:12:20;;;;;;;1.30;0.40;;;26.40;82.40;;;;;;6096626;23;20009;-79
2022/09/15 13:14:52;;;;;;;1.75;0.40;;;27.90;77.80;;;;;;6049093;23;20011;-79
2022/09/15 13:17:24;;;;;;;2.25;0.38;;;29.20;73.80;;;;;;6097840;23;20021;-79
2022/09/15 13:19:58;;;;;;;;;;;30.40;70.40;;;;;;6108212;23;20007;-80
2022/09/15 13:22:48;;;;;;;4.35;0.40;;;30.70;66.40;;;;;;6029554;23;19912;-80
2022/09/15 13:25:26;;;;;;;2.40;0.40;;;29.70;65.20;;;;;;6109248;23;20007;-80
2022/09/15 13:28:01;;;;;;;3.60;0.50;;;28.40;66.50;;;;;;6107853;23;20003;-80
2022/09/15 13:30:50;;;;;;;3.55;0.60;;;27.20;67.60;;;;;;6072038;23;20025;-80
2022/09/15 13:33:54;;;;;;;1.98;0.50;;;26.10;69.30;;;;;;6083736;23;20033;-80
2022/09/15 13:36:44;;;;;;;3.50;1.00;;;25.00;70.60;;;;;;6096630;23;20487;-80
2022/09/15 13:39:30;;;;;;;3.58;0.60;;;23.80;72.80;;;;;;6074413;23;20010;-80
2022/09/15 13:42:18;;;;;;;2.20;0.55;;;23.10;73.90;;;;;;6097616;23;20021;-79
2022/09/15 13:45:15;;;;;;;2.50;0.50;;;22.40;75.40;;;;;;6084937;23;20017;-80
2022/09/15 13:47:51;;;;;;;6.00;0.50;;;21.90;76.60;;;;;;6096799;23;20428;-80
2022/09/15 13:50:54;;;;;;;3.38;0.50;;;21.60;77.50;;;;;;6071377;23;20030;-79
2022/09/15 13:53:36;;;;;;;1.23;0.32;;;21.40;78.70;;;;;;6049527;23;20014;-79
2022/09/15 13:56:06;;;;;;;2.07;0.30;;;21.20;79.60;;;;;;6083250;23;20463;-79
2022/09/15 13:58:33;;;;;;;3.65;0.30;;;21.00;80.20;;;;;;6082292;23;20002;-79
2022/09/15 14:01:03;;;;;;;3.88;0.40;;;20.90;80.70;;;;;;6073310;23;20003;-79
2022/09/15 14:03:48;;;;;;;7.38;0.82;;;20.80;80.50;;;;;;6057195;23;20036;-80
2022/09/15 14:06:25;;;;;;;3.10;0.60;;;20.60;80.90;;;;;;6084146;23;20005;-81
2022/09/15 14:08:56;;;;;;;2.45;0.40;;;20.40;81.70;;;;;;6080668;23;20006;-80
2022/09/15 14:11:29;;;;;;;2.80;0.43;;;20.30;82.40;;;;;;6055369;23;19999;-81
2022/09/15 14:14:03;;;;;;;2.88;0.30;;;20.30;82.60;;;;;;6071719;23;20358;-82
2022/09/15 14:16:37;;;;;;;2.03;0.40;;;20.30;82.80;;;;;;6048758;23;20007;-81
2022/09/15 14:19:37;;;;;;;3.97;0.60;;;20.40;83.10;;;;;;6025423;23;20007;-81
2022/09/15 14:22:37;;;;;;;;;;;20.60;83.10;;;;;;6023987;23;20018;-82
2022/09/15 14:25:31;;;;;;;2.42;0.30;;;20.80;82.70;;;;;;6037051;23;19920;-82
2022/09/15 14:28:15;;;;;;;2.35;0.30;;;21.10;82.80;;;;;;6037426;23;20011;-81
2022/09/15 14:30:53;;;;;;;3.92;0.47;;;21.30;82.30;;;;;;6041143;23;20033;-81
2022/09/15 14:33:33;;;;;;;2.83;0.40;;;21.30;81.90;;;;;;6034951;23;20014;-81
2022/09/15 14:36:18;;;;;;;2.83;0.30;;;21.30;81.70;;;;;;6062944;23;20017;-82
2022/09/15 14:39:24;;;;;;;2.63;0.30;;;21.40;81.60;;;;;;6048723;23;20003;-82
2022/09/15 14:41:53;;;;;;;2.78;0.35;;;21.40;81.30;;;;;;6046898;23;20007;-81
2022/09/15 14:44:36;;;;;;;3.53;0.50;;;21.40;80.70;;;;;;6048056;23;20011;-80
2022/09/15 14:47:26;;;;;;;3.22;0.82;;;21.30;80.90;;;;;;6048115;23;20015;-79
2022/09/15 14:50:16;;;;;;;4.22;0.75;;;21.20;81.50;;;;;;6070452;23;20015;-79
2022/09/15 14:52:49;;;;;;;2.88;0.43;;;21.10;82.00;;;;;;6046453;23;20015;-79
2022/09/15 14:55:27;;;;;;;3.42;0.55;;;20.90;82.20;;;;;;6046595;23;20034;-79
2022/09/15 14:58:22;;;;;;;2.47;0.38;;;20.60;82.40;;;;;;6082571;23;20002;-79
2022/09/15 15:00:59;;;;;;;4.38;0.65;;;20.20;82.70;;;;;;6013372;23;20026;-79
2022/09/15 15:03:44;;;;;;;2.58;0.40;;;19.90;82.70;;;;;;6053945;23;20007;-80
2022/09/15 15:06:27;;;;;;;4.15;0.43;;;19.70;83.30;;;;;;6052359;23;20014;-80
2022/09/15 15:09:02;;;;;;;2.15;0.30;;;19.50;84.10;;;;;;6019946;23;20011;-80
2022/09/15 15:11:33;;;;;;;1.85;0.43;;;19.40;84.50;;;;;;6043394;23;20332;-80
2022/09/15 15:14:01;;;;;;;4.13;0.45;;;19.40;85.00;;;;;;5996565;23;20424;-80
2022/09/15 15:16:30;;;;;;;1.58;0.40;;;19.40;85.20;;;;;;6043364;23;20011;-80
2022/09/15 15:18:57;;;;;;;3.20;0.40;;;19.40;84.80;;;;;;5972914;23;20017;-79
2022/09/15 15:21:44;;;;;;;2.10;0.30;;;19.40;84.40;;;;;;6018730;23;20022;-80
2022/09/15 15:24:13;;;;;;;2.53;0.30;;;19.40;83.80;;;;;;6053431;23;20000;-79
2022/09/15 15:26:42;;;;;;;2.17;0.30;;;19.50;83.20;;;;;;6019539;23;20003;-79
2022/09/15 15:29:39;;;;;;;2.40;0.45;;;19.60;82.70;;;;;;6019411;23;20003;-79
2022/09/15 15:32:14;;;;;;;2.90;0.40;;;19.60;81.50;;;;;;6043063;23;20023;-79
2022/09/15 15:34:57;;;;;;;1.10;0.30;;;19.60;81.70;;;;;;6019153;23;20014;-80
2022/09/15 15:37:34;;;;;;;1.98;0.50;;;19.60;81.90;;;;;;6043831;23;20022;-80
2022/09/15 15:40:05;;;;;;;1.75;0.43;;;19.60;82.70;;;;;;6043057;23;20347;-80
2022/09/15 15:42:35;;;;;;;1.58;0.30;;;19.60;83.10;;;;;;6046419;23;20014;-81
2022/09/15 15:45:11;;;;;;;2.55;0.32;;;19.60;83.50;;;;;;5996784;23;20012;-80
2022/09/15 15:47:40;;;;;;;5.38;2.72;;;19.60;83.60;;;;;;6054102;23;20007;-80
2022/09/15 15:50:14;;;;;;;1.77;0.70;;;19.60;84.00;;;;;;5995019;23;20012;-80